Time,TemperatureF,DewpointF,PressureIn,WindDirection,WindDirectionDegrees,WindSpeedMPH,WindSpeedGustMPH,Humidity,HourlyPrecipIn,Conditions,Clouds,dailyrainin,SolarRadiationWatts/m^2,SoftwareType,DateUTC
2013-02-20 00:01:00,54.0,26.0,-100.00,NW,315,7.0,15.0,33,0.00,,,0.00,1.000000,,2013-02-20 07:01:00,
2013-02-20 02:32:00,50.0,29.0,-100.00,WNW,298,8.0,13.0,45,-99.99,,,0.00,1.000000,,2013-02-20 09:32:00,
2013-02-20 02:42:00,50.0,29.0,-100.00,WNW,298,8.0,13.0,45,-99.99,,,0.00,1.000000,,2013-02-20 09:42:00,
2013-02-20 02:52:00,50.0,29.0,-100.00,WNW,298,8.0,13.0,45,-99.99,,,0.00,1.000000,,2013-02-20 09:52:00,
2013-02-20 03:01:00,50.0,29.0,-100.00,WNW,298,8.0,13.0,45,-99.99,,,0.00,1.000000,,2013-02-20 10:01:00,
2013-02-20 03:32:00,49.0,33.0,-100.00,SSW,199,10.0,22.0,53,0.00,,,0.00,1.000000,,2013-02-20 10:32:00,
2013-02-20 03:42:00,49.0,33.0,-100.00,SSW,199,10.0,22.0,53,0.00,,,0.00,1.000000,,2013-02-20 10:42:00,
2013-02-20 03:52:00,49.0,33.0,-100.00,SSW,199,10.0,22.0,53,0.00,,,0.00,1.000000,,2013-02-20 10:52:00,
2013-02-20 04:02:00,49.0,33.0,-100.00,SSW,199,10.0,22.0,53,0.00,,,0.00,1.000000,,2013-02-20 11:02:00,
2013-02-20 04:32:00,47.0,33.0,-100.00,SW,221,10.0,16.0,59,0.00,,,0.00,1.000000,,2013-02-20 11:32:00,
2013-02-20 04:42:00,47.0,33.0,-100.00,SW,221,10.0,16.0,59,0.00,,,0.00,1.000000,,2013-02-20 11:42:00,
2013-02-20 04:52:00,47.0,33.0,-100.00,SW,221,10.0,16.0,59,0.00,,,0.00,1.000000,,2013-02-20 11:52:00,
2013-02-20 05:01:00,47.0,33.0,-100.00,SW,221,10.0,16.0,59,0.00,,,0.00,1.000000,,2013-02-20 12:01:00,
2013-02-20 05:32:00,46.0,37.0,-100.00,WSW,253,2.0,13.0,71,0.00,,,0.00,1.000000,,2013-02-20 12:32:00,
2013-02-20 05:42:00,46.0,37.0,-100.00,WSW,253,2.0,13.0,71,0.00,,,0.00,1.000000,,2013-02-20 12:42:00,
2013-02-20 05:53:00,46.0,37.0,-100.00,WSW,253,2.0,13.0,71,0.00,,,0.00,1.000000,,2013-02-20 12:53:00,
2013-02-20 06:01:00,46.0,37.0,-100.00,WSW,253,2.0,13.0,71,0.00,,,0.00,1.000000,,2013-02-20 13:01:00,
2013-02-20 07:32:00,45.0,32.0,-100.00,West,264,5.0,13.0,61,-99.99,,,0.00,1.000000,,2013-02-20 14:32:00,
2013-02-20 07:42:00,45.0,32.0,-100.00,West,264,5.0,13.0,61,-99.99,,,0.00,1.000000,,2013-02-20 14:42:00,
2013-02-20 07:52:00,45.0,32.0,-100.00,West,264,5.0,13.0,61,-99.99,,,0.00,1.000000,,2013-02-20 14:52:00,
2013-02-20 08:01:00,45.0,32.0,-100.00,West,264,5.0,13.0,61,-99.99,,,0.00,1.000000,,2013-02-20 15:01:00,
2013-02-20 08:32:00,45.0,32.0,-100.00,West,263,5.0,9.0,61,0.00,,,0.00,13.000000,,2013-02-20 15:32:00,
2013-02-20 08:42:00,45.0,32.0,-100.00,West,263,5.0,9.0,61,0.00,,,0.00,13.000000,,2013-02-20 15:42:00,
2013-02-20 08:52:00,45.0,32.0,-100.00,West,263,5.0,9.0,61,0.00,,,0.00,13.000000,,2013-02-20 15:52:00,
2013-02-20 09:01:00,45.0,32.0,-100.00,West,263,5.0,9.0,61,0.00,,,0.00,13.000000,,2013-02-20 16:01:00,
2013-02-20 09:32:00,46.0,34.0,-100.00,SSW,206,6.0,16.0,62,0.00,,,-99.99,79.000000,,2013-02-20 16:32:00,
2013-02-20 09:42:00,46.0,34.0,-100.00,SSW,206,6.0,16.0,62,0.00,,,-99.99,79.000000,,2013-02-20 16:42:00,
2013-02-20 09:52:00,46.0,34.0,-100.00,SSW,206,6.0,16.0,62,0.00,,,-99.99,79.000000,,2013-02-20 16:52:00,
2013-02-20 10:01:00,46.0,34.0,-100.00,SSW,206,6.0,16.0,62,0.00,,,-99.99,79.000000,,2013-02-20 17:01:00,
2013-02-20 10:32:00,46.0,33.0,-100.00,SW,217,8.0,16.0,60,0.00,,,0.00,57.000000,,2013-02-20 17:32:00,
2013-02-20 10:42:00,46.0,33.0,-100.00,SW,217,8.0,16.0,60,0.00,,,0.00,57.000000,,2013-02-20 17:42:00,
2013-02-20 10:52:00,46.0,33.0,-100.00,SW,217,8.0,16.0,60,0.00,,,0.00,57.000000,,2013-02-20 17:52:00,
2013-02-20 11:02:00,46.0,33.0,-100.00,SW,217,8.0,16.0,60,0.00,,,0.00,57.000000,,2013-02-20 18:02:00,
2013-02-20 11:32:00,47.0,35.0,-100.00,SW,216,7.0,19.0,62,0.00,,,0.00,98.000000,,2013-02-20 18:32:00,
2013-02-20 11:42:00,47.0,35.0,-100.00,SW,216,7.0,19.0,62,0.00,,,0.00,98.000000,,2013-02-20 18:42:00,
2013-02-20 11:52:00,47.0,35.0,-100.00,SW,216,7.0,19.0,62,0.00,,,0.00,98.000000,,2013-02-20 18:52:00,
2013-02-20 12:01:00,47.0,35.0,-100.00,SW,216,7.0,19.0,62,0.00,,,0.00,98.000000,,2013-02-20 19:01:00,
2013-02-20 12:32:00,35.0,29.0,-100.00,WNW,288,11.0,22.0,79,0.12,,,0.12,61.000000,,2013-02-20 19:32:00,
2013-02-20 12:42:00,35.0,29.0,-100.00,WNW,288,11.0,22.0,79,0.12,,,0.12,61.000000,,2013-02-20 19:42:00,
2013-02-20 12:52:00,35.0,29.0,-100.00,WNW,288,11.0,22.0,79,0.12,,,0.12,61.000000,,2013-02-20 19:52:00,
2013-02-20 13:01:00,35.0,29.0,-100.00,WNW,288,11.0,22.0,79,0.12,,,0.12,61.000000,,2013-02-20 20:01:00,
2013-02-20 13:31:00,36.0,32.0,-100.00,WNW,285,17.0,28.0,84,0.07,,,0.19,87.000000,,2013-02-20 20:31:00,
2013-02-20 13:41:00,36.0,32.0,-100.00,WNW,285,17.0,28.0,84,0.07,,,0.19,87.000000,,2013-02-20 20:41:00,
2013-02-20 13:51:00,36.0,32.0,-100.00,WNW,285,17.0,28.0,84,0.07,,,0.19,87.000000,,2013-02-20 20:51:00,
2013-02-20 14:01:00,36.0,32.0,-100.00,WNW,285,17.0,28.0,84,0.07,,,0.19,87.000000,,2013-02-20 21:01:00,
2013-02-20 14:32:00,37.0,30.0,-100.00,NW,320,6.0,26.0,76,0.00,,,0.19,93.000000,,2013-02-20 21:32:00,
2013-02-20 14:42:00,37.0,30.0,-100.00,NW,320,6.0,26.0,76,0.00,,,0.19,93.000000,,2013-02-20 21:42:00,
2013-02-20 14:52:00,37.0,30.0,-100.00,NW,320,6.0,26.0,76,0.00,,,0.19,93.000000,,2013-02-20 21:52:00,
2013-02-20 15:01:00,37.0,30.0,-100.00,NW,320,6.0,26.0,76,0.00,,,0.19,93.000000,,2013-02-20 22:01:00,
2013-02-20 15:32:00,43.0,34.0,-100.00,South,180,5.0,8.0,69,0.00,,,0.19,254.000000,,2013-02-20 22:32:00,
2013-02-20 15:43:00,43.0,34.0,-100.00,South,180,5.0,8.0,69,0.00,,,0.19,254.000000,,2013-02-20 22:43:00,
2013-02-20 15:51:00,43.0,34.0,-100.00,South,180,5.0,8.0,69,0.00,,,0.19,254.000000,,2013-02-20 22:51:00,
2013-02-20 16:01:00,43.0,34.0,-100.00,South,180,5.0,8.0,69,0.00,,,0.19,254.000000,,2013-02-20 23:01:00,
2013-02-20 16:32:00,39.0,31.0,-100.00,SSE,160,5.0,11.0,74,0.00,,,0.19,213.000000,,2013-02-20 23:32:00,
2013-02-20 16:42:00,39.0,31.0,-100.00,SSE,160,5.0,11.0,74,0.00,,,0.19,213.000000,,2013-02-20 23:42:00,
2013-02-20 16:52:00,39.0,31.0,-100.00,SSE,160,5.0,11.0,74,0.00,,,0.19,213.000000,,2013-02-20 23:52:00,
2013-02-20 17:02:00,39.0,31.0,-100.00,SSE,160,5.0,11.0,74,0.00,,,0.19,213.000000,,2013-02-21 00:02:00,
2013-02-20 17:32:00,38.0,30.0,-100.00,WSW,242,3.0,8.0,73,0.01,,,0.20,80.000000,,2013-02-21 00:32:00,
2013-02-20 17:42:00,38.0,30.0,-100.00,WSW,242,3.0,8.0,73,0.01,,,0.20,80.000000,,2013-02-21 00:42:00,
2013-02-20 17:52:00,38.0,30.0,-100.00,WSW,242,3.0,8.0,73,0.01,,,0.20,80.000000,,2013-02-21 00:52:00,
2013-02-20 18:01:00,38.0,30.0,-100.00,WSW,242,3.0,8.0,73,0.01,,,0.20,80.000000,,2013-02-21 01:01:00,
2013-02-20 18:32:00,33.0,31.0,-100.00,NE,50,2.0,6.0,92,0.02,,,0.22,4.000000,,2013-02-21 01:32:00,
2013-02-20 18:42:00,33.0,31.0,-100.00,NE,50,2.0,6.0,92,0.02,,,0.22,4.000000,,2013-02-21 01:42:00,
2013-02-20 18:52:00,33.0,31.0,-100.00,NE,50,2.0,6.0,92,0.02,,,0.22,4.000000,,2013-02-21 01:52:00,
2013-02-20 19:01:00,33.0,31.0,-100.00,NE,50,2.0,6.0,92,0.02,,,0.22,4.000000,,2013-02-21 02:01:00,
2013-02-20 20:32:00,33.0,32.0,-100.00,SSE,150,3.0,4.0,95,-99.99,,,0.22,1.000000,,2013-02-21 03:32:00,
2013-02-20 20:42:00,33.0,32.0,-100.00,SSE,150,3.0,4.0,95,-99.99,,,0.22,1.000000,,2013-02-21 03:42:00,
2013-02-20 20:52:00,33.0,32.0,-100.00,SSE,150,3.0,4.0,95,-99.99,,,0.22,1.000000,,2013-02-21 03:52:00,
2013-02-20 21:01:00,33.0,32.0,-100.00,SSE,150,3.0,4.0,95,-99.99,,,0.22,1.000000,,2013-02-21 04:01:00,
2013-02-20 21:32:00,32.0,31.0,-100.00,North,7,1.0,4.0,96,0.00,,,0.22,1.000000,,2013-02-21 04:32:00,
2013-02-20 21:42:00,32.0,31.0,-100.00,North,7,1.0,4.0,96,0.00,,,0.22,1.000000,,2013-02-21 04:42:00,
2013-02-20 21:52:00,32.0,31.0,-100.00,North,7,1.0,4.0,96,0.00,,,0.22,1.000000,,2013-02-21 04:52:00,
2013-02-20 22:02:00,32.0,31.0,-100.00,North,7,1.0,4.0,96,0.00,,,0.22,1.000000,,2013-02-21 05:02:00,
2013-02-20 22:37:00,32.0,31.0,-100.00,North,7,2.0,5.0,96,0.00,,,0.22,1.000000,,2013-02-21 05:37:00,
2013-02-20 22:46:00,32.0,31.0,-100.00,North,7,2.0,5.0,96,0.00,,,0.22,1.000000,,2013-02-21 05:46:00,
2013-02-20 22:58:00,32.0,31.0,-100.00,North,7,2.0,5.0,96,0.00,,,0.22,1.000000,,2013-02-21 05:58:00,
2013-02-20 23:01:00,32.0,31.0,-100.00,North,7,2.0,5.0,96,0.00,,,0.22,1.000000,,2013-02-21 06:01:00,
2013-02-20 23:31:00,33.0,32.0,-100.00,North,8,2.0,5.0,97,0.00,,,0.22,0.000000,,2013-02-21 06:31:00,
2013-02-20 23:41:00,33.0,32.0,-100.00,North,8,2.0,5.0,97,0.00,,,0.22,0.000000,,2013-02-21 06:41:00,
2013-02-20 23:51:00,33.0,32.0,-100.00,North,8,2.0,5.0,97,0.00,,,0.22,0.000000,,2013-02-21 06:51:00,